sensor_id;sensor_type;location;lat;lon;timestamp;P1;durP1;ratioP1;P2;durP2;ratioP2
36195;SDS011;22237;51.974;4.616;2023-04-01T00:02:21;32.87;;;5.50;;
36195;SDS011;22237;51.974;4.616;2023-04-01T00:04:46;11.88;;;3.80;;
36195;SDS011;22237;51.974;4.616;2023-04-01T00:07:11;33.88;;;6.35;;
36195;SDS011;22237;51.974;4.616;2023-04-01T00:09:36;28.60;;;5.00;;
36195;SDS011;22237;51.974;4.616;2023-04-01T00:12:02;20.95;;;4.93;;
36195;SDS011;22237;51.974;4.616;2023-04-01T00:14:27;27.67;;;5.70;;
36195;SDS011;22237;51.974;4.616;2023-04-01T00:16:55;18.10;;;5.28;;
36195;SDS011;22237;51.974;4.616;2023-04-01T00:19:20;17.58;;;5.55;;
36195;SDS011;22237;51.974;4.616;2023-04-01T00:21:45;19.83;;;6.22;;
36195;SDS011;22237;51.974;4.616;2023-04-01T00:24:11;18.88;;;4.20;;
36195;SDS011;22237;51.974;4.616;2023-04-01T00:26:36;14.60;;;4.35;;
36195;SDS011;22237;51.974;4.616;2023-04-01T00:29:02;23.23;;;4.68;;
36195;SDS011;22237;51.974;4.616;2023-04-01T00:31:27;24.00;;;5.25;;
36195;SDS011;22237;51.974;4.616;2023-04-01T00:33:52;8.38;;;4.35;;
36195;SDS011;22237;51.974;4.616;2023-04-01T00:36:19;30.58;;;5.05;;
36195;SDS011;22237;51.974;4.616;2023-04-01T00:38:44;16.98;;;4.40;;
36195;SDS011;22237;51.974;4.616;2023-04-01T00:41:11;23.75;;;5.40;;
36195;SDS011;22237;51.974;4.616;2023-04-01T00:43:39;13.07;;;3.47;;
36195;SDS011;22237;51.974;4.616;2023-04-01T00:46:05;10.38;;;3.85;;
36195;SDS011;22237;51.974;4.616;2023-04-01T00:48:31;23.88;;;5.25;;
36195;SDS011;22237;51.974;4.616;2023-04-01T00:50:59;12.23;;;4.03;;
36195;SDS011;22237;51.974;4.616;2023-04-01T00:53:25;23.17;;;6.13;;
36195;SDS011;22237;51.974;4.616;2023-04-01T00:55:54;9.23;;;3.35;;
36195;SDS011;22237;51.974;4.616;2023-04-01T00:58:21;15.25;;;3.67;;
36195;SDS011;22237;51.974;4.616;2023-04-01T01:00:48;18.77;;;4.65;;
36195;SDS011;22237;51.974;4.616;2023-04-01T01:03:14;14.35;;;4.05;;
36195;SDS011;22237;51.974;4.616;2023-04-01T01:10:51;14.48;;;5.15;;
36195;SDS011;22237;51.974;4.616;2023-04-01T01:13:26;16.80;;;4.70;;
36195;SDS011;22237;51.974;4.616;2023-04-01T01:15:56;22.75;;;5.68;;
36195;SDS011;22237;51.974;4.616;2023-04-01T01:20:49;26.67;;;6.93;;
36195;SDS011;22237;51.974;4.616;2023-04-01T01:34:01;21.13;;;6.10;;
36195;SDS011;22237;51.974;4.616;2023-04-01T01:36:31;16.02;;;3.90;;
36195;SDS011;22237;51.974;4.616;2023-04-01T01:38:59;13.25;;;4.00;;
36195;SDS011;22237;51.974;4.616;2023-04-01T01:41:25;12.30;;;3.10;;
36195;SDS011;22237;51.974;4.616;2023-04-01T01:43:51;9.13;;;3.15;;
36195;SDS011;22237;51.974;4.616;2023-04-01T01:46:19;12.57;;;3.38;;
36195;SDS011;22237;51.974;4.616;2023-04-01T01:48:45;9.20;;;3.50;;
36195;SDS011;22237;51.974;4.616;2023-04-01T01:51:12;13.35;;;3.33;;
36195;SDS011;22237;51.974;4.616;2023-04-01T01:53:37;11.20;;;3.28;;
36195;SDS011;22237;51.974;4.616;2023-04-01T01:56:02;12.63;;;2.97;;
36195;SDS011;22237;51.974;4.616;2023-04-01T01:58:29;9.98;;;2.83;;
36195;SDS011;22237;51.974;4.616;2023-04-01T02:00:57;9.00;;;2.85;;
36195;SDS011;22237;51.974;4.616;2023-04-01T02:03:24;11.80;;;4.25;;
36195;SDS011;22237;51.974;4.616;2023-04-01T02:05:50;8.05;;;3.03;;
36195;SDS011;22237;51.974;4.616;2023-04-01T02:08:27;7.80;;;2.75;;
36195;SDS011;22237;51.974;4.616;2023-04-01T02:10:59;11.07;;;3.00;;
36195;SDS011;22237;51.974;4.616;2023-04-01T02:13:36;6.10;;;2.15;;
36195;SDS011;22237;51.974;4.616;2023-04-01T02:16:03;8.35;;;2.88;;
36195;SDS011;22237;51.974;4.616;2023-04-01T02:18:32;8.75;;;3.13;;
36195;SDS011;22237;51.974;4.616;2023-04-01T02:20:59;6.00;;;2.83;;
36195;SDS011;22237;51.974;4.616;2023-04-01T02:23:25;7.68;;;3.20;;
36195;SDS011;22237;51.974;4.616;2023-04-01T02:25:51;14.32;;;2.80;;
36195;SDS011;22237;51.974;4.616;2023-04-01T02:28:17;15.15;;;3.08;;
36195;SDS011;22237;51.974;4.616;2023-04-01T02:30:45;6.95;;;2.63;;
36195;SDS011;22237;51.974;4.616;2023-04-01T02:33:11;13.98;;;2.92;;
36195;SDS011;22237;51.974;4.616;2023-04-01T02:35:37;9.88;;;3.40;;
36195;SDS011;22237;51.974;4.616;2023-04-01T02:38:08;10.35;;;3.35;;
36195;SDS011;22237;51.974;4.616;2023-04-01T02:40:41;8.35;;;3.20;;
36195;SDS011;22237;51.974;4.616;2023-04-01T02:43:06;7.40;;;3.13;;
36195;SDS011;22237;51.974;4.616;2023-04-01T02:45:31;7.00;;;3.20;;
36195;SDS011;22237;51.974;4.616;2023-04-01T02:47:57;9.50;;;3.15;;
36195;SDS011;22237;51.974;4.616;2023-04-01T02:50:22;5.50;;;2.90;;
36195;SDS011;22237;51.974;4.616;2023-04-01T02:52:47;12.18;;;2.80;;
36195;SDS011;22237;51.974;4.616;2023-04-01T02:55:13;8.37;;;3.67;;
36195;SDS011;22237;51.974;4.616;2023-04-01T02:57:38;10.52;;;3.28;;
36195;SDS011;22237;51.974;4.616;2023-04-01T03:00:03;10.00;;;3.72;;
36195;SDS011;22237;51.974;4.616;2023-04-01T03:02:29;16.58;;;4.30;;
36195;SDS011;22237;51.974;4.616;2023-04-01T03:04:54;13.98;;;5.28;;
36195;SDS011;22237;51.974;4.616;2023-04-01T03:07:19;9.32;;;4.38;;
36195;SDS011;22237;51.974;4.616;2023-04-01T03:09:44;10.93;;;4.57;;
36195;SDS011;22237;51.974;4.616;2023-04-01T03:12:10;11.55;;;4.50;;
36195;SDS011;22237;51.974;4.616;2023-04-01T03:17:25;10.85;;;5.50;;
36195;SDS011;22237;51.974;4.616;2023-04-01T03:19:50;14.60;;;4.75;;
36195;SDS011;22237;51.974;4.616;2023-04-01T03:22:15;11.18;;;5.07;;
36195;SDS011;22237;51.974;4.616;2023-04-01T03:24:40;12.47;;;6.33;;
36195;SDS011;22237;51.974;4.616;2023-04-01T03:27:06;15.77;;;6.25;;
36195;SDS011;22237;51.974;4.616;2023-04-01T03:29:31;15.88;;;6.07;;
36195;SDS011;22237;51.974;4.616;2023-04-01T03:31:56;19.88;;;6.10;;
36195;SDS011;22237;51.974;4.616;2023-04-01T03:34:23;16.40;;;5.95;;
36195;SDS011;22237;51.974;4.616;2023-04-01T03:36:48;15.07;;;6.75;;
36195;SDS011;22237;51.974;4.616;2023-04-01T03:39:13;19.13;;;5.83;;
36195;SDS011;22237;51.974;4.616;2023-04-01T03:41:38;17.13;;;7.38;;
36195;SDS011;22237;51.974;4.616;2023-04-01T03:44:04;16.50;;;6.03;;
36195;SDS011;22237;51.974;4.616;2023-04-01T03:46:29;17.33;;;5.55;;
36195;SDS011;22237;51.974;4.616;2023-04-01T03:48:54;17.70;;;5.97;;
36195;SDS011;22237;51.974;4.616;2023-04-01T03:51:20;10.70;;;4.90;;
36195;SDS011;22237;51.974;4.616;2023-04-01T03:53:45;19.10;;;6.03;;
36195;SDS011;22237;51.974;4.616;2023-04-01T03:56:10;14.73;;;4.82;;
36195;SDS011;22237;51.974;4.616;2023-04-01T03:58:36;16.48;;;5.80;;
36195;SDS011;22237;51.974;4.616;2023-04-01T04:01:01;14.40;;;5.40;;
36195;SDS011;22237;51.974;4.616;2023-04-01T04:03:26;15.75;;;5.13;;
36195;SDS011;22237;51.974;4.616;2023-04-01T04:05:52;13.98;;;4.70;;
36195;SDS011;22237;51.974;4.616;2023-04-01T04:08:17;15.60;;;5.00;;
36195;SDS011;22237;51.974;4.616;2023-04-01T04:10:43;19.95;;;5.97;;
36195;SDS011;22237;51.974;4.616;2023-04-01T04:13:08;15.10;;;5.55;;
36195;SDS011;22237;51.974;4.616;2023-04-01T04:15:33;15.43;;;5.72;;
36195;SDS011;22237;51.974;4.616;2023-04-01T04:17:59;10.65;;;4.68;;
36195;SDS011;22237;51.974;4.616;2023-04-01T04:20:24;19.23;;;5.70;;
36195;SDS011;22237;51.974;4.616;2023-04-01T04:22:49;12.05;;;5.03;;
36195;SDS011;22237;51.974;4.616;2023-04-01T04:25:14;19.95;;;5.05;;
36195;SDS011;22237;51.974;4.616;2023-04-01T04:27:40;15.55;;;5.60;;
36195;SDS011;22237;51.974;4.616;2023-04-01T04:30:06;29.08;;;7.38;;
36195;SDS011;22237;51.974;4.616;2023-04-01T04:32:31;17.45;;;6.07;;
36195;SDS011;22237;51.974;4.616;2023-04-01T04:34:57;20.90;;;7.00;;
36195;SDS011;22237;51.974;4.616;2023-04-01T04:37:22;19.48;;;5.82;;
36195;SDS011;22237;51.974;4.616;2023-04-01T04:39:47;18.90;;;6.78;;
36195;SDS011;22237;51.974;4.616;2023-04-01T04:42:12;16.40;;;7.00;;
36195;SDS011;22237;51.974;4.616;2023-04-01T04:44:38;17.30;;;6.47;;
36195;SDS011;22237;51.974;4.616;2023-04-01T04:47:03;16.38;;;6.20;;
36195;SDS011;22237;51.974;4.616;2023-04-01T04:49:29;15.20;;;6.27;;
36195;SDS011;22237;51.974;4.616;2023-04-01T04:51:54;15.57;;;6.40;;
36195;SDS011;22237;51.974;4.616;2023-04-01T04:54:19;15.52;;;5.80;;
36195;SDS011;22237;51.974;4.616;2023-04-01T04:56:45;13.43;;;6.32;;
36195;SDS011;22237;51.974;4.616;2023-04-01T04:59:10;18.40;;;6.00;;
36195;SDS011;22237;51.974;4.616;2023-04-01T05:01:35;22.27;;;6.40;;
36195;SDS011;22237;51.974;4.616;2023-04-01T05:04:00;13.82;;;6.40;;
36195;SDS011;22237;51.974;4.616;2023-04-01T05:06:26;16.88;;;6.70;;
36195;SDS011;22237;51.974;4.616;2023-04-01T05:08:54;17.98;;;6.18;;
36195;SDS011;22237;51.974;4.616;2023-04-01T05:11:20;25.63;;;7.88;;
36195;SDS011;22237;51.974;4.616;2023-04-01T05:13:45;17.52;;;6.55;;
36195;SDS011;22237;51.974;4.616;2023-04-01T05:16:12;15.68;;;7.30;;
36195;SDS011;22237;51.974;4.616;2023-04-01T05:18:37;15.60;;;7.00;;
36195;SDS011;22237;51.974;4.616;2023-04-01T05:21:03;18.38;;;7.32;;
36195;SDS011;22237;51.974;4.616;2023-04-01T05:23:30;15.60;;;6.25;;
36195;SDS011;22237;51.974;4.616;2023-04-01T05:25:55;19.70;;;6.75;;
36195;SDS011;22237;51.974;4.616;2023-04-01T05:28:22;24.45;;;7.70;;
36195;SDS011;22237;51.974;4.616;2023-04-01T05:30:47;19.58;;;6.75;;
36195;SDS011;22237;51.974;4.616;2023-04-01T05:33:12;16.33;;;6.15;;
36195;SDS011;22237;51.974;4.616;2023-04-01T05:38:28;20.92;;;6.15;;
36195;SDS011;22237;51.974;4.616;2023-04-01T05:40:58;14.38;;;5.63;;
36195;SDS011;22237;51.974;4.616;2023-04-01T05:43:23;19.00;;;6.43;;
36195;SDS011;22237;51.974;4.616;2023-04-01T05:45:48;17.77;;;6.30;;
36195;SDS011;22237;51.974;4.616;2023-04-01T05:48:14;22.02;;;6.30;;
36195;SDS011;22237;51.974;4.616;2023-04-01T05:53:43;15.93;;;5.93;;
36195;SDS011;22237;51.974;4.616;2023-04-01T05:56:08;11.48;;;5.47;;
36195;SDS011;22237;51.974;4.616;2023-04-01T05:58:34;18.73;;;6.15;;
36195;SDS011;22237;51.974;4.616;2023-04-01T06:01:03;15.23;;;6.28;;
36195;SDS011;22237;51.974;4.616;2023-04-01T06:03:28;23.83;;;6.72;;
36195;SDS011;22237;51.974;4.616;2023-04-01T06:05:54;22.38;;;7.00;;
36195;SDS011;22237;51.974;4.616;2023-04-01T06:08:19;15.98;;;6.75;;
36195;SDS011;22237;51.974;4.616;2023-04-01T06:26:29;21.17;;;5.43;;
36195;SDS011;22237;51.974;4.616;2023-04-01T06:29:02;23.30;;;8.07;;
36195;SDS011;22237;51.974;4.616;2023-04-01T06:31:33;19.30;;;6.75;;
36195;SDS011;22237;51.974;4.616;2023-04-01T06:36:52;21.58;;;7.80;;
36195;SDS011;22237;51.974;4.616;2023-04-01T06:39:32;24.10;;;8.05;;
36195;SDS011;22237;51.974;4.616;2023-04-01T06:54:49;12.77;;;6.10;;
36195;SDS011;22237;51.974;4.616;2023-04-01T06:59:40;17.00;;;5.80;;
36195;SDS011;22237;51.974;4.616;2023-04-01T07:02:13;14.30;;;5.72;;
36195;SDS011;22237;51.974;4.616;2023-04-01T07:04:44;22.85;;;6.57;;
36195;SDS011;22237;51.974;4.616;2023-04-01T07:09:41;17.92;;;7.10;;
36195;SDS011;22237;51.974;4.616;2023-04-01T07:12:32;22.52;;;5.75;;
36195;SDS011;22237;51.974;4.616;2023-04-01T07:15:18;14.85;;;6.25;;
36195;SDS011;22237;51.974;4.616;2023-04-01T07:17:44;14.23;;;5.85;;
36195;SDS011;22237;51.974;4.616;2023-04-01T07:22:42;20.70;;;5.35;;
36195;SDS011;22237;51.974;4.616;2023-04-01T07:33:33;16.67;;;4.35;;
36195;SDS011;22237;51.974;4.616;2023-04-01T07:39:06;11.85;;;4.78;;
36195;SDS011;22237;51.974;4.616;2023-04-01T07:44:21;11.63;;;4.90;;
36195;SDS011;22237;51.974;4.616;2023-04-01T07:46:58;10.80;;;4.10;;
36195;SDS011;22237;51.974;4.616;2023-04-01T07:52:12;7.57;;;3.58;;
36195;SDS011;22237;51.974;4.616;2023-04-01T07:55:04;6.80;;;3.42;;
36195;SDS011;22237;51.974;4.616;2023-04-01T07:57:37;7.57;;;3.60;;
36195;SDS011;22237;51.974;4.616;2023-04-01T08:15:24;13.03;;;4.67;;
36195;SDS011;22237;51.974;4.616;2023-04-01T08:18:29;9.77;;;4.72;;
36195;SDS011;22237;51.974;4.616;2023-04-01T08:26:27;18.10;;;5.53;;
36195;SDS011;22237;51.974;4.616;2023-04-01T08:29:10;14.32;;;5.53;;
36195;SDS011;22237;51.974;4.616;2023-04-01T08:31:45;11.90;;;3.97;;
36195;SDS011;22237;51.974;4.616;2023-04-01T08:34:23;10.15;;;4.72;;
36195;SDS011;22237;51.974;4.616;2023-04-01T08:36:57;13.27;;;4.68;;
36195;SDS011;22237;51.974;4.616;2023-04-01T08:39:29;14.48;;;5.40;;
36195;SDS011;22237;51.974;4.616;2023-04-01T08:57:56;27.13;;;6.45;;
36195;SDS011;22237;51.974;4.616;2023-04-01T09:00:31;15.02;;;5.38;;
36195;SDS011;22237;51.974;4.616;2023-04-01T09:08:28;20.40;;;6.27;;
36195;SDS011;22237;51.974;4.616;2023-04-01T09:10:59;11.70;;;3.95;;
36195;SDS011;22237;51.974;4.616;2023-04-01T09:13:31;17.35;;;4.65;;
36195;SDS011;22237;51.974;4.616;2023-04-01T09:29:02;23.80;;;5.43;;
36195;SDS011;22237;51.974;4.616;2023-04-01T09:31:25;18.50;;;4.80;;
36195;SDS011;22237;51.974;4.616;2023-04-01T09:51:22;14.07;;;4.70;;
36195;SDS011;22237;51.974;4.616;2023-04-01T10:04:16;9.53;;;2.67;;
36195;SDS011;22237;51.974;4.616;2023-04-01T10:28:37;10.25;;;4.80;;
36195;SDS011;22237;51.974;4.616;2023-04-01T10:48:13;14.45;;;4.50;;
36195;SDS011;22237;51.974;4.616;2023-04-01T11:06:40;14.77;;;5.07;;
36195;SDS011;22237;51.974;4.616;2023-04-01T11:18:17;10.57;;;3.83;;
36195;SDS011;22237;51.974;4.616;2023-04-01T11:33:48;9.60;;;3.38;;
36195;SDS011;22237;51.974;4.616;2023-04-01T11:50:38;11.32;;;4.05;;
36195;SDS011;22237;51.974;4.616;2023-04-01T11:53:11;8.45;;;3.67;;
36195;SDS011;22237;51.974;4.616;2023-04-01T11:58:25;11.25;;;3.63;;
36195;SDS011;22237;51.974;4.616;2023-04-01T12:14:16;8.00;;;3.55;;
36195;SDS011;22237;51.974;4.616;2023-04-01T12:17:08;10.77;;;4.32;;
36195;SDS011;22237;51.974;4.616;2023-04-01T12:20:18;8.80;;;4.10;;
36195;SDS011;22237;51.974;4.616;2023-04-01T12:33:35;8.35;;;3.33;;
36195;SDS011;22237;51.974;4.616;2023-04-01T12:36:26;10.50;;;3.35;;
36195;SDS011;22237;51.974;4.616;2023-04-01T12:56:43;12.20;;;4.18;;
36195;SDS011;22237;51.974;4.616;2023-04-01T12:59:29;12.48;;;3.47;;
36195;SDS011;22237;51.974;4.616;2023-04-01T13:02:02;11.05;;;4.55;;
36195;SDS011;22237;51.974;4.616;2023-04-01T13:12:06;11.47;;;5.03;;
36195;SDS011;22237;51.974;4.616;2023-04-01T13:17:04;11.75;;;4.43;;
36195;SDS011;22237;51.974;4.616;2023-04-01T13:21:58;11.50;;;4.03;;
36195;SDS011;22237;51.974;4.616;2023-04-01T13:34:47;17.20;;;4.65;;
36195;SDS011;22237;51.974;4.616;2023-04-01T13:39:57;12.65;;;4.45;;
36195;SDS011;22237;51.974;4.616;2023-04-01T14:00:16;9.55;;;3.08;;
36195;SDS011;22237;51.974;4.616;2023-04-01T14:08:03;6.70;;;3.28;;
36195;SDS011;22237;51.974;4.616;2023-04-01T14:13:17;9.82;;;3.22;;
36195;SDS011;22237;51.974;4.616;2023-04-01T14:18:24;9.90;;;3.57;;
36195;SDS011;22237;51.974;4.616;2023-04-01T14:36:02;12.30;;;4.07;;
36195;SDS011;22237;51.974;4.616;2023-04-01T14:51:10;7.78;;;3.10;;
36195;SDS011;22237;51.974;4.616;2023-04-01T14:53:40;6.20;;;3.20;;
36195;SDS011;22237;51.974;4.616;2023-04-01T14:58:45;10.05;;;2.70;;
36195;SDS011;22237;51.974;4.616;2023-04-01T15:01:19;8.43;;;2.75;;
36195;SDS011;22237;51.974;4.616;2023-04-01T15:03:52;7.00;;;2.55;;
36195;SDS011;22237;51.974;4.616;2023-04-01T15:11:35;10.60;;;2.65;;
36195;SDS011;22237;51.974;4.616;2023-04-01T15:22:15;12.57;;;3.03;;
36195;SDS011;22237;51.974;4.616;2023-04-01T15:24:50;3.38;;;2.28;;
36195;SDS011;22237;51.974;4.616;2023-04-01T15:40:20;8.38;;;3.10;;
36195;SDS011;22237;51.974;4.616;2023-04-01T15:48:01;4.38;;;2.50;;
36195;SDS011;22237;51.974;4.616;2023-04-01T15:58:06;9.03;;;3.40;;
36195;SDS011;22237;51.974;4.616;2023-04-01T16:26:39;9.13;;;5.20;;
36195;SDS011;22237;51.974;4.616;2023-04-01T16:29:10;9.85;;;4.38;;
36195;SDS011;22237;51.974;4.616;2023-04-01T16:34:29;9.40;;;4.43;;
36195;SDS011;22237;51.974;4.616;2023-04-01T16:37:15;12.25;;;3.97;;
36195;SDS011;22237;51.974;4.616;2023-04-01T16:47:58;8.80;;;4.00;;
36195;SDS011;22237;51.974;4.616;2023-04-01T16:55:48;5.50;;;3.60;;
36195;SDS011;22237;51.974;4.616;2023-04-01T16:58:18;9.93;;;4.63;;
36195;SDS011;22237;51.974;4.616;2023-04-01T17:00:55;5.75;;;3.70;;
36195;SDS011;22237;51.974;4.616;2023-04-01T17:03:26;5.78;;;3.67;;
36195;SDS011;22237;51.974;4.616;2023-04-01T17:38:25;9.80;;;4.20;;
36195;SDS011;22237;51.974;4.616;2023-04-01T17:43:28;8.65;;;4.00;;
36195;SDS011;22237;51.974;4.616;2023-04-01T17:45:58;5.53;;;3.58;;
36195;SDS011;22237;51.974;4.616;2023-04-01T17:48:31;5.68;;;3.70;;
36195;SDS011;22237;51.974;4.616;2023-04-01T17:51:07;7.07;;;3.40;;
36195;SDS011;22237;51.974;4.616;2023-04-01T17:58:35;6.47;;;3.20;;
36195;SDS011;22237;51.974;4.616;2023-04-01T18:01:30;3.90;;;2.67;;
36195;SDS011;22237;51.974;4.616;2023-04-01T18:04:04;4.68;;;2.70;;
36195;SDS011;22237;51.974;4.616;2023-04-01T18:21:55;3.33;;;2.50;;
36195;SDS011;22237;51.974;4.616;2023-04-01T18:24:35;5.22;;;2.13;;
36195;SDS011;22237;51.974;4.616;2023-04-01T18:29:41;4.03;;;2.50;;
36195;SDS011;22237;51.974;4.616;2023-04-01T18:34:43;4.13;;;2.65;;
36195;SDS011;22237;51.974;4.616;2023-04-01T18:37:16;3.47;;;2.72;;
36195;SDS011;22237;51.974;4.616;2023-04-01T18:39:46;3.92;;;2.35;;
36195;SDS011;22237;51.974;4.616;2023-04-01T18:44:56;3.97;;;3.03;;
36195;SDS011;22237;51.974;4.616;2023-04-01T18:52:43;6.70;;;4.00;;
36195;SDS011;22237;51.974;4.616;2023-04-01T18:57:49;6.68;;;4.00;;
36195;SDS011;22237;51.974;4.616;2023-04-01T19:02:41;7.22;;;3.80;;
36195;SDS011;22237;51.974;4.616;2023-04-01T19:05:42;5.32;;;4.00;;
36195;SDS011;22237;51.974;4.616;2023-04-01T19:25:49;5.68;;;3.58;;
36195;SDS011;22237;51.974;4.616;2023-04-01T19:28:20;5.45;;;3.53;;
36195;SDS011;22237;51.974;4.616;2023-04-01T19:30:50;7.55;;;3.22;;
36195;SDS011;22237;51.974;4.616;2023-04-01T19:33:20;6.13;;;3.30;;
36195;SDS011;22237;51.974;4.616;2023-04-01T19:35:58;7.35;;;3.97;;
36195;SDS011;22237;51.974;4.616;2023-04-01T19:43:39;6.43;;;3.40;;
36195;SDS011;22237;51.974;4.616;2023-04-01T19:48:37;5.30;;;3.92;;
36195;SDS011;22237;51.974;4.616;2023-04-01T19:51:18;6.28;;;3.33;;
36195;SDS011;22237;51.974;4.616;2023-04-01T19:56:22;5.28;;;3.50;;
36195;SDS011;22237;51.974;4.616;2023-04-01T19:58:55;5.88;;;3.53;;
36195;SDS011;22237;51.974;4.616;2023-04-01T20:04:08;4.82;;;3.35;;
36195;SDS011;22237;51.974;4.616;2023-04-01T20:06:51;4.90;;;3.08;;
36195;SDS011;22237;51.974;4.616;2023-04-01T20:09:26;5.85;;;3.38;;
36195;SDS011;22237;51.974;4.616;2023-04-01T20:11:55;5.53;;;3.20;;
36195;SDS011;22237;51.974;4.616;2023-04-01T20:14:56;5.32;;;3.63;;
36195;SDS011;22237;51.974;4.616;2023-04-01T20:22:34;7.18;;;3.95;;
36195;SDS011;22237;51.974;4.616;2023-04-01T20:42:00;8.23;;;3.25;;
36195;SDS011;22237;51.974;4.616;2023-04-01T20:49:07;5.60;;;3.70;;
36195;SDS011;22237;51.974;4.616;2023-04-01T20:51:38;7.28;;;3.38;;
36195;SDS011;22237;51.974;4.616;2023-04-01T20:57:00;7.15;;;3.70;;
36195;SDS011;22237;51.974;4.616;2023-04-01T21:07:19;6.28;;;3.75;;
36195;SDS011;22237;51.974;4.616;2023-04-01T21:09:51;11.43;;;3.70;;
36195;SDS011;22237;51.974;4.616;2023-04-01T21:22:36;11.50;;;4.03;;
36195;SDS011;22237;51.974;4.616;2023-04-01T21:27:48;6.80;;;3.67;;
36195;SDS011;22237;51.974;4.616;2023-04-01T21:32:53;8.77;;;3.80;;
36195;SDS011;22237;51.974;4.616;2023-04-01T21:43:45;8.30;;;4.35;;
36195;SDS011;22237;51.974;4.616;2023-04-01T21:54:16;8.83;;;4.40;;
36195;SDS011;22237;51.974;4.616;2023-04-01T22:07:17;9.40;;;4.30;;
36195;SDS011;22237;51.974;4.616;2023-04-01T22:12:13;7.05;;;4.32;;
36195;SDS011;22237;51.974;4.616;2023-04-01T22:14:48;6.95;;;4.00;;
36195;SDS011;22237;51.974;4.616;2023-04-01T22:17:23;6.93;;;3.80;;
36195;SDS011;22237;51.974;4.616;2023-04-01T22:22:45;8.00;;;4.07;;
36195;SDS011;22237;51.974;4.616;2023-04-01T22:30:08;6.60;;;3.90;;
36195;SDS011;22237;51.974;4.616;2023-04-01T22:32:47;7.05;;;4.38;;
36195;SDS011;22237;51.974;4.616;2023-04-01T22:40:36;7.32;;;3.88;;
36195;SDS011;22237;51.974;4.616;2023-04-01T22:43:12;7.47;;;3.63;;
36195;SDS011;22237;51.974;4.616;2023-04-01T22:45:50;6.40;;;3.97;;
36195;SDS011;22237;51.974;4.616;2023-04-01T22:50:49;8.55;;;4.72;;
36195;SDS011;22237;51.974;4.616;2023-04-01T22:56:03;8.15;;;4.55;;
36195;SDS011;22237;51.974;4.616;2023-04-01T22:58:30;7.43;;;3.95;;
36195;SDS011;22237;51.974;4.616;2023-04-01T23:01:14;7.32;;;4.50;;
36195;SDS011;22237;51.974;4.616;2023-04-01T23:03:41;7.60;;;4.47;;
36195;SDS011;22237;51.974;4.616;2023-04-01T23:06:12;9.25;;;4.57;;
36195;SDS011;22237;51.974;4.616;2023-04-01T23:11:09;7.05;;;4.35;;
36195;SDS011;22237;51.974;4.616;2023-04-01T23:13:38;8.30;;;4.15;;
36195;SDS011;22237;51.974;4.616;2023-04-01T23:16:04;8.23;;;4.38;;
36195;SDS011;22237;51.974;4.616;2023-04-01T23:18:35;7.88;;;4.50;;
36195;SDS011;22237;51.974;4.616;2023-04-01T23:28:31;8.07;;;4.55;;
36195;SDS011;22237;51.974;4.616;2023-04-01T23:33:29;9.57;;;4.82;;
36195;SDS011;22237;51.974;4.616;2023-04-01T23:36:13;9.18;;;4.05;;
36195;SDS011;22237;51.974;4.616;2023-04-01T23:38:40;10.98;;;4.13;;
36195;SDS011;22237;51.974;4.616;2023-04-01T23:41:16;8.63;;;4.75;;
36195;SDS011;22237;51.974;4.616;2023-04-01T23:43:42;10.57;;;4.80;;
36195;SDS011;22237;51.974;4.616;2023-04-01T23:46:08;8.75;;;4.47;;
36195;SDS011;22237;51.974;4.616;2023-04-01T23:50:59;6.43;;;3.78;;
36195;SDS011;22237;51.974;4.616;2023-04-01T23:53:26;9.43;;;4.80;;
36195;SDS011;22237;51.974;4.616;2023-04-01T23:55:53;7.88;;;4.45;;
